createdAt,value
2023-05-21T00:05:24.059Z,6.45
2023-05-21T00:15:28.376Z,5.55
2023-05-21T00:25:31.578Z,10.37
2023-05-21T00:35:36.124Z,16.67
2023-05-21T00:55:44.447Z,6.25
2023-05-21T01:05:48.965Z,6.40
2023-05-21T01:15:54.768Z,6.30
2023-05-21T01:26:00.295Z,6.47
2023-05-21T01:36:09.870Z,5.97
2023-05-21T01:46:18.277Z,5.80
2023-05-21T01:56:23.156Z,6.65
2023-05-21T02:06:27.638Z,6.38
2023-05-21T02:16:30.793Z,6.20
2023-05-21T02:26:35.613Z,6.05
2023-05-21T02:36:38.683Z,6.22
2023-05-21T02:46:43.049Z,6.40
2023-05-21T02:56:46.325Z,6.25
2023-05-21T03:06:51.865Z,6.90
2023-05-21T03:16:55.033Z,7.00
2023-05-21T03:27:01.100Z,6.68
2023-05-21T03:37:04.315Z,7.22
2023-05-21T03:47:10.277Z,7.70
2023-05-21T03:57:13.874Z,6.60
2023-05-21T04:07:19.216Z,6.80
2023-05-21T04:17:22.419Z,7.20
2023-05-21T04:27:27.924Z,7.23
2023-05-21T04:37:31.538Z,8.18
2023-05-21T04:47:36.110Z,8.60
2023-05-21T04:57:40.123Z,8.77
2023-05-21T05:07:45.798Z,8.75
2023-05-21T05:17:50.538Z,8.07
2023-05-21T05:27:55.185Z,9.18
2023-05-21T05:37:58.285Z,8.10
2023-05-21T05:48:02.960Z,8.68
2023-05-21T05:58:06.755Z,9.18
2023-05-21T06:08:23.380Z,9.23
2023-05-21T06:18:26.398Z,10.20
2023-05-21T06:28:31.268Z,8.73
2023-05-21T06:38:35.447Z,9.88
2023-05-21T06:48:39.885Z,8.48
2023-05-21T07:08:49.592Z,9.00
2023-05-21T07:18:52.997Z,9.85
2023-05-21T07:28:57.548Z,9.48
2023-05-21T07:39:01.036Z,9.35
2023-05-21T07:49:06.149Z,9.18
2023-05-21T07:59:09.253Z,10.20
2023-05-21T08:09:14.559Z,9.52
2023-05-21T08:19:17.810Z,9.68
2023-05-21T08:29:22.292Z,10.87
2023-05-21T08:39:25.528Z,11.52
2023-05-21T08:49:35.728Z,11.60
2023-05-21T08:59:43.302Z,10.82
2023-05-21T09:09:58.163Z,11.00
2023-05-21T09:20:13.596Z,10.85
2023-05-21T09:30:26.022Z,11.20
2023-05-21T09:40:46.276Z,12.43
2023-05-21T09:50:50.891Z,12.23
2023-05-21T10:00:54.235Z,11.63
2023-05-21T10:10:58.577Z,11.77
2023-05-21T10:21:02.336Z,13.40
2023-05-21T10:31:07.839Z,12.30
2023-05-21T10:41:12.587Z,12.77
2023-05-21T10:51:25.035Z,15.25
2023-05-21T11:01:30.242Z,13.98
2023-05-21T11:11:46.195Z,14.13
2023-05-21T11:21:52.289Z,14.30
2023-05-21T11:32:02.966Z,13.48
2023-05-21T11:42:06.416Z,16.55
2023-05-21T11:52:12.058Z,15.98
2023-05-21T12:02:18.879Z,17.42
2023-05-21T12:12:25.694Z,14.05
2023-05-21T12:22:29.910Z,17.48
2023-05-21T12:32:34.421Z,16.52
2023-05-21T12:42:40.123Z,16.33
2023-05-21T12:52:45.583Z,17.67
2023-05-21T13:02:48.962Z,16.85
2023-05-21T13:12:53.378Z,15.88
2023-05-21T13:22:56.652Z,16.63
2023-05-21T13:43:04.249Z,14.60
2023-05-21T13:53:08.976Z,14.77
2023-05-21T14:03:12.291Z,14.60
2023-05-21T14:13:20.035Z,14.93
2023-05-21T14:23:23.362Z,14.13
2023-05-21T14:33:27.727Z,13.30
2023-05-21T14:43:30.760Z,12.95
2023-05-21T14:53:35.134Z,13.45
2023-05-21T15:03:38.175Z,12.93
2023-05-21T15:13:42.652Z,11.60
2023-05-21T15:23:47.406Z,12.45
2023-05-21T15:33:51.836Z,12.88
2023-05-21T15:43:55.033Z,13.50
2023-05-21T15:53:59.697Z,14.00
2023-05-21T16:04:03.225Z,15.52
2023-05-21T16:14:07.793Z,15.27
2023-05-21T16:24:10.774Z,13.38
2023-05-21T16:34:15.405Z,13.50
2023-05-21T16:44:20.219Z,11.98
2023-05-21T16:54:24.791Z,13.73
2023-05-21T17:04:27.818Z,14.20
2023-05-21T17:14:34.331Z,13.35
2023-05-21T17:24:37.946Z,16.27
2023-05-21T17:34:42.317Z,14.70
2023-05-21T17:44:45.252Z,16.23
2023-05-21T17:54:49.598Z,13.88
2023-05-21T18:04:52.656Z,14.82
2023-05-21T18:14:57.145Z,15.57
2023-05-21T18:25:00.445Z,8.70
2023-05-21T18:35:05.260Z,9.35
2023-05-21T18:45:10.294Z,9.15
2023-05-21T18:55:15.450Z,10.20
2023-05-21T19:05:18.496Z,9.13
2023-05-21T19:15:22.975Z,10.77
2023-05-21T19:25:26.450Z,10.13
2023-05-21T19:35:31.342Z,9.23
2023-05-21T19:45:34.551Z,10.32
2023-05-21T19:55:38.972Z,11.03
2023-05-21T20:05:41.936Z,9.93
2023-05-21T20:15:48.013Z,10.35
2023-05-21T20:25:51.190Z,9.88
2023-05-21T20:35:55.564Z,10.98
2023-05-21T20:46:00.800Z,10.75
2023-05-21T20:56:08.372Z,11.48
2023-05-21T21:06:12.286Z,10.93
2023-05-21T21:16:16.726Z,13.53
2023-05-21T21:26:19.842Z,14.02
2023-05-21T21:36:24.234Z,15.05
2023-05-21T21:56:32.048Z,17.80
2023-05-21T22:06:35.042Z,17.55
2023-05-21T22:16:41.566Z,19.05
2023-05-21T22:26:44.844Z,20.02
2023-05-21T22:36:49.227Z,20.15
2023-05-21T22:56:56.731Z,23.17
2023-05-21T23:06:59.903Z,22.90
2023-05-21T23:17:04.540Z,23.55
2023-05-21T23:27:07.944Z,24.25
2023-05-21T23:37:12.295Z,25.45
2023-05-21T23:47:15.295Z,25.70
2023-05-21T23:57:19.576Z,28.65
